sensor_id;sensor_type;location;lat;lon;timestamp;temperature;humidity
38854;DHT22;24606;51.992;4.198;2022-09-12T00:04:11;26.00;58.60
38854;DHT22;24606;51.992;4.198;2022-09-12T00:09:14;26.40;58.90
38854;DHT22;24606;51.992;4.198;2022-09-12T00:14:17;25.90;58.60
38854;DHT22;24606;51.992;4.198;2022-09-12T00:19:19;26.00;58.70
38854;DHT22;24606;51.992;4.198;2022-09-12T00:24:21;25.90;58.60
38854;DHT22;24606;51.992;4.198;2022-09-12T00:29:25;26.20;58.90
38854;DHT22;24606;51.992;4.198;2022-09-12T00:34:27;25.90;58.70
38854;DHT22;24606;51.992;4.198;2022-09-12T00:39:28;25.80;59.30
38854;DHT22;24606;51.992;4.198;2022-09-12T00:44:49;25.80;58.70
38854;DHT22;24606;51.992;4.198;2022-09-12T00:49:55;25.80;58.70
38854;DHT22;24606;51.992;4.198;2022-09-12T00:55:02;25.80;58.80
38854;DHT22;24606;51.992;4.198;2022-09-12T01:00:09;25.70;58.70
38854;DHT22;24606;51.992;4.198;2022-09-12T01:05:16;25.70;58.70
38854;DHT22;24606;51.992;4.198;2022-09-12T01:10:18;25.70;58.70
38854;DHT22;24606;51.992;4.198;2022-09-12T01:15:22;25.60;58.70
38854;DHT22;24606;51.992;4.198;2022-09-12T01:26:05;25.60;58.80
38854;DHT22;24606;51.992;4.198;2022-09-12T01:31:15;25.50;58.80
38854;DHT22;24606;51.992;4.198;2022-09-12T01:36:35;25.60;58.90
38854;DHT22;24606;51.992;4.198;2022-09-12T01:41:43;25.50;58.90
38854;DHT22;24606;51.992;4.198;2022-09-12T01:46:54;25.50;58.90
38854;DHT22;24606;51.992;4.198;2022-09-12T01:52:01;25.50;58.90
38854;DHT22;24606;51.992;4.198;2022-09-12T01:57:10;25.40;58.90
38854;DHT22;24606;51.992;4.198;2022-09-12T02:02:18;25.40;58.90
38854;DHT22;24606;51.992;4.198;2022-09-12T02:07:26;25.80;59.40
38854;DHT22;24606;51.992;4.198;2022-09-12T02:12:37;25.40;58.90
38854;DHT22;24606;51.992;4.198;2022-09-12T02:17:43;25.40;59.60
38854;DHT22;24606;51.992;4.198;2022-09-12T02:22:49;25.40;59.00
38854;DHT22;24606;51.992;4.198;2022-09-12T02:27:55;25.60;59.20
38854;DHT22;24606;51.992;4.198;2022-09-12T02:33:06;25.40;59.20
38854;DHT22;24606;51.992;4.198;2022-09-12T02:38:13;25.30;59.10
38854;DHT22;24606;51.992;4.198;2022-09-12T02:43:16;25.40;59.20
38854;DHT22;24606;51.992;4.198;2022-09-12T02:48:19;25.30;59.10
38854;DHT22;24606;51.992;4.198;2022-09-12T02:53:24;25.50;59.30
38854;DHT22;24606;51.992;4.198;2022-09-12T02:58:28;25.20;59.20
38854;DHT22;24606;51.992;4.198;2022-09-12T03:03:46;25.20;59.20
38854;DHT22;24606;51.992;4.198;2022-09-12T03:08:58;25.20;59.20
38854;DHT22;24606;51.992;4.198;2022-09-12T03:14:07;25.20;59.20
38854;DHT22;24606;51.992;4.198;2022-09-12T03:19:22;25.20;59.20
38854;DHT22;24606;51.992;4.198;2022-09-12T03:24:29;25.20;59.20
38854;DHT22;24606;51.992;4.198;2022-09-12T03:29:34;25.20;59.30
38854;DHT22;24606;51.992;4.198;2022-09-12T03:34:37;24.90;59.10
38854;DHT22;24606;51.992;4.198;2022-09-12T03:39:39;25.20;59.40
38854;DHT22;24606;51.992;4.198;2022-09-12T03:44:41;25.20;59.30
38854;DHT22;24606;51.992;4.198;2022-09-12T03:49:44;25.10;59.40
38854;DHT22;24606;51.992;4.198;2022-09-12T03:54:46;25.10;59.30
38854;DHT22;24606;51.992;4.198;2022-09-12T03:59:48;25.10;59.40
38854;DHT22;24606;51.992;4.198;2022-09-12T04:04:51;25.10;59.40
38854;DHT22;24606;51.992;4.198;2022-09-12T04:09:53;25.00;59.40
38854;DHT22;24606;51.992;4.198;2022-09-12T04:14:55;25.00;59.40
38854;DHT22;24606;51.992;4.198;2022-09-12T04:19:59;25.00;59.30
38854;DHT22;24606;51.992;4.198;2022-09-12T04:25:01;25.00;59.40
38854;DHT22;24606;51.992;4.198;2022-09-12T04:30:03;25.00;59.40
38854;DHT22;24606;51.992;4.198;2022-09-12T04:35:07;25.00;59.50
38854;DHT22;24606;51.992;4.198;2022-09-12T04:40:10;24.90;59.60
38854;DHT22;24606;51.992;4.198;2022-09-12T04:45:12;25.60;59.90
38854;DHT22;24606;51.992;4.198;2022-09-12T04:50:17;24.90;59.60
38854;DHT22;24606;51.992;4.198;2022-09-12T04:55:20;24.90;59.50
38854;DHT22;24606;51.992;4.198;2022-09-12T05:00:22;24.90;59.50
38854;DHT22;24606;51.992;4.198;2022-09-12T05:05:25;24.90;59.50
38854;DHT22;24606;51.992;4.198;2022-09-12T05:10:27;24.80;59.60
38854;DHT22;24606;51.992;4.198;2022-09-12T05:15:29;24.90;59.70
38854;DHT22;24606;51.992;4.198;2022-09-12T05:20:33;24.70;59.50
38854;DHT22;24606;51.992;4.198;2022-09-12T05:25:34;24.70;59.60
38854;DHT22;24606;51.992;4.198;2022-09-12T05:30:36;24.80;59.60
38854;DHT22;24606;51.992;4.198;2022-09-12T05:35:39;24.70;59.70
38854;DHT22;24606;51.992;4.198;2022-09-12T05:40:41;24.70;59.80
38854;DHT22;24606;51.992;4.198;2022-09-12T05:45:43;24.90;60.00
38854;DHT22;24606;51.992;4.198;2022-09-12T05:50:46;24.70;59.80
38854;DHT22;24606;51.992;4.198;2022-09-12T05:55:48;24.80;59.90
38854;DHT22;24606;51.992;4.198;2022-09-12T06:00:50;24.80;59.70
38854;DHT22;24606;51.992;4.198;2022-09-12T06:05:53;24.80;59.80
38854;DHT22;24606;51.992;4.198;2022-09-12T06:10:58;24.70;59.70
38854;DHT22;24606;51.992;4.198;2022-09-12T06:16:04;24.70;59.60
38854;DHT22;24606;51.992;4.198;2022-09-12T06:21:10;24.70;59.70
38854;DHT22;24606;51.992;4.198;2022-09-12T06:26:14;24.70;59.70
38854;DHT22;24606;51.992;4.198;2022-09-12T06:31:19;24.90;59.50
38854;DHT22;24606;51.992;4.198;2022-09-12T06:36:24;24.90;59.50
38854;DHT22;24606;51.992;4.198;2022-09-12T06:41:26;24.90;59.50
38854;DHT22;24606;51.992;4.198;2022-09-12T06:46:29;24.90;59.40
38854;DHT22;24606;51.992;4.198;2022-09-12T06:51:33;25.80;60.00
38854;DHT22;24606;51.992;4.198;2022-09-12T06:56:35;25.30;59.70
38854;DHT22;24606;51.992;4.198;2022-09-12T07:01:37;24.90;59.50
38854;DHT22;24606;51.992;4.198;2022-09-12T07:06:41;24.90;59.50
38854;DHT22;24606;51.992;4.198;2022-09-12T07:11:45;24.90;59.40
38854;DHT22;24606;51.992;4.198;2022-09-12T07:16:46;24.90;59.30
38854;DHT22;24606;51.992;4.198;2022-09-12T07:21:49;24.90;59.10
38854;DHT22;24606;51.992;4.198;2022-09-12T07:26:51;25.00;59.10
38854;DHT22;24606;51.992;4.198;2022-09-12T07:31:53;25.00;59.10
38854;DHT22;24606;51.992;4.198;2022-09-12T07:36:56;25.00;59.10
38854;DHT22;24606;51.992;4.198;2022-09-12T07:41:58;25.40;59.40
38854;DHT22;24606;51.992;4.198;2022-09-12T07:47:00;24.90;59.40
38854;DHT22;24606;51.992;4.198;2022-09-12T07:52:04;25.00;59.10
38854;DHT22;24606;51.992;4.198;2022-09-12T07:57:06;25.00;59.10
38854;DHT22;24606;51.992;4.198;2022-09-12T08:02:10;24.90;59.10
38854;DHT22;24606;51.992;4.198;2022-09-12T08:07:14;25.40;59.30
38854;DHT22;24606;51.992;4.198;2022-09-12T08:12:18;25.00;59.10
38854;DHT22;24606;51.992;4.198;2022-09-12T08:17:20;24.90;59.10
38854;DHT22;24606;51.992;4.198;2022-09-12T08:22:23;24.90;59.10
38854;DHT22;24606;51.992;4.198;2022-09-12T08:27:25;25.00;59.10
38854;DHT22;24606;51.992;4.198;2022-09-12T08:32:26;25.00;59.10
38854;DHT22;24606;51.992;4.198;2022-09-12T08:37:30;24.50;59.50
38854;DHT22;24606;51.992;4.198;2022-09-12T08:42:44;24.40;61.00
38854;DHT22;24606;51.992;4.198;2022-09-12T08:47:48;24.80;62.90
38854;DHT22;24606;51.992;4.198;2022-09-12T08:52:55;24.30;60.70
38854;DHT22;24606;51.992;4.198;2022-09-12T08:57:58;24.10;59.90
38854;DHT22;24606;51.992;4.198;2022-09-12T09:03:22;24.70;59.60
38854;DHT22;24606;51.992;4.198;2022-09-12T09:08:38;24.40;60.20
38854;DHT22;24606;51.992;4.198;2022-09-12T09:13:51;24.80;59.40
38854;DHT22;24606;51.992;4.198;2022-09-12T09:19:17;24.00;60.20
38854;DHT22;24606;51.992;4.198;2022-09-12T09:24:25;24.90;59.00
38854;DHT22;24606;51.992;4.198;2022-09-12T09:29:32;24.20;61.20
38854;DHT22;24606;51.992;4.198;2022-09-12T09:34:38;24.60;60.10
38854;DHT22;24606;51.992;4.198;2022-09-12T09:39:51;25.10;58.40
38854;DHT22;24606;51.992;4.198;2022-09-12T09:44:58;23.50;61.20
38854;DHT22;24606;51.992;4.198;2022-09-12T09:50:00;24.60;60.00
38854;DHT22;24606;51.992;4.198;2022-09-12T09:55:05;25.00;58.70
38854;DHT22;24606;51.992;4.198;2022-09-12T10:00:28;25.20;58.40
38854;DHT22;24606;51.992;4.198;2022-09-12T10:05:33;25.50;57.80
38854;DHT22;24606;51.992;4.198;2022-09-12T10:10:52;25.80;57.10
38854;DHT22;24606;51.992;4.198;2022-09-12T10:16:00;25.70;56.80
38854;DHT22;24606;51.992;4.198;2022-09-12T10:21:16;25.40;57.90
38854;DHT22;24606;51.992;4.198;2022-09-12T10:26:20;25.00;58.30
38854;DHT22;24606;51.992;4.198;2022-09-12T10:31:24;24.70;56.40
38854;DHT22;24606;51.992;4.198;2022-09-12T10:36:35;25.50;57.40
38854;DHT22;24606;51.992;4.198;2022-09-12T10:41:39;25.60;58.30
38854;DHT22;24606;51.992;4.198;2022-09-12T10:46:41;26.10;57.70
38854;DHT22;24606;51.992;4.198;2022-09-12T10:51:44;24.80;58.20
38854;DHT22;24606;51.992;4.198;2022-09-12T11:02:23;24.30;57.30
38854;DHT22;24606;51.992;4.198;2022-09-12T11:07:42;23.90;60.90
38854;DHT22;24606;51.992;4.198;2022-09-12T11:12:50;23.30;63.00
38854;DHT22;24606;51.992;4.198;2022-09-12T11:17:58;24.10;61.70
38854;DHT22;24606;51.992;4.198;2022-09-12T11:28:51;23.90;59.20
38854;DHT22;24606;51.992;4.198;2022-09-12T11:33:57;24.10;63.00
38854;DHT22;24606;51.992;4.198;2022-09-12T11:39:03;24.30;60.70
38854;DHT22;24606;51.992;4.198;2022-09-12T11:44:15;24.40;58.60
38854;DHT22;24606;51.992;4.198;2022-09-12T11:49:25;24.70;60.00
38854;DHT22;24606;51.992;4.198;2022-09-12T11:54:32;25.50;57.10
38854;DHT22;24606;51.992;4.198;2022-09-12T11:59:42;24.70;57.80
38854;DHT22;24606;51.992;4.198;2022-09-12T12:04:57;24.90;57.90
38854;DHT22;24606;51.992;4.198;2022-09-12T12:10:00;25.80;53.70
38854;DHT22;24606;51.992;4.198;2022-09-12T12:15:04;25.40;57.90
38854;DHT22;24606;51.992;4.198;2022-09-12T12:20:06;25.70;57.90
38854;DHT22;24606;51.992;4.198;2022-09-12T12:25:37;25.40;57.50
38854;DHT22;24606;51.992;4.198;2022-09-12T12:30:59;25.20;56.10
38854;DHT22;24606;51.992;4.198;2022-09-12T12:36:07;25.50;54.20
38854;DHT22;24606;51.992;4.198;2022-09-12T12:41:41;25.80;56.60
38854;DHT22;24606;51.992;4.198;2022-09-12T12:47:10;26.10;55.90
38854;DHT22;24606;51.992;4.198;2022-09-12T12:52:15;26.20;56.50
38854;DHT22;24606;51.992;4.198;2022-09-12T12:57:30;27.70;55.30
38854;DHT22;24606;51.992;4.198;2022-09-12T13:02:38;26.90;55.30
38854;DHT22;24606;51.992;4.198;2022-09-12T13:07:42;27.50;53.10
38854;DHT22;24606;51.992;4.198;2022-09-12T13:12:46;27.50;53.50
38854;DHT22;24606;51.992;4.198;2022-09-12T13:17:50;27.50;52.10
38854;DHT22;24606;51.992;4.198;2022-09-12T13:22:52;27.90;53.70
38854;DHT22;24606;51.992;4.198;2022-09-12T13:28:06;27.40;53.80
38854;DHT22;24606;51.992;4.198;2022-09-12T13:33:23;27.70;53.50
38854;DHT22;24606;51.992;4.198;2022-09-12T13:38:36;28.00;52.10
38854;DHT22;24606;51.992;4.198;2022-09-12T13:43:42;27.90;53.20
38854;DHT22;24606;51.992;4.198;2022-09-12T13:48:48;28.00;52.80
38854;DHT22;24606;51.992;4.198;2022-09-12T13:53:50;27.90;53.30
38854;DHT22;24606;51.992;4.198;2022-09-12T13:58:54;27.90;53.60
38854;DHT22;24606;51.992;4.198;2022-09-12T14:03:58;27.90;53.60
38854;DHT22;24606;51.992;4.198;2022-09-12T14:09:22;28.30;51.90
38854;DHT22;24606;51.992;4.198;2022-09-12T14:14:28;28.30;52.90
38854;DHT22;24606;51.992;4.198;2022-09-12T14:19:33;28.90;52.10
38854;DHT22;24606;51.992;4.198;2022-09-12T14:24:35;28.60;51.20
38854;DHT22;24606;51.992;4.198;2022-09-12T14:29:38;28.60;52.40
38854;DHT22;24606;51.992;4.198;2022-09-12T14:35:17;28.40;52.70
38854;DHT22;24606;51.992;4.198;2022-09-12T14:40:22;28.90;49.50
38854;DHT22;24606;51.992;4.198;2022-09-12T14:45:28;28.70;49.60
38854;DHT22;24606;51.992;4.198;2022-09-12T14:50:34;29.00;51.90
38854;DHT22;24606;51.992;4.198;2022-09-12T14:55:43;29.10;52.30
38854;DHT22;24606;51.992;4.198;2022-09-12T15:00:54;29.10;51.60
38854;DHT22;24606;51.992;4.198;2022-09-12T15:05:58;29.10;51.40
38854;DHT22;24606;51.992;4.198;2022-09-12T15:11:00;30.00;51.20
38854;DHT22;24606;51.992;4.198;2022-09-12T15:16:02;29.50;51.40
38854;DHT22;24606;51.992;4.198;2022-09-12T15:21:06;29.30;52.20
38854;DHT22;24606;51.992;4.198;2022-09-12T15:26:12;29.60;51.00
38854;DHT22;24606;51.992;4.198;2022-09-12T15:31:20;29.40;50.60
38854;DHT22;24606;51.992;4.198;2022-09-12T15:36:25;29.10;51.20
38854;DHT22;24606;51.992;4.198;2022-09-12T15:41:30;29.50;50.70
38854;DHT22;24606;51.992;4.198;2022-09-12T15:46:33;29.20;48.80
38854;DHT22;24606;51.992;4.198;2022-09-12T15:51:36;29.00;52.40
38854;DHT22;24606;51.992;4.198;2022-09-12T15:56:37;28.90;52.10
38854;DHT22;24606;51.992;4.198;2022-09-12T16:01:39;29.00;52.30
38854;DHT22;24606;51.992;4.198;2022-09-12T16:06:43;29.10;52.10
38854;DHT22;24606;51.992;4.198;2022-09-12T16:11:45;29.10;52.00
38854;DHT22;24606;51.992;4.198;2022-09-12T16:16:51;29.10;52.20
38854;DHT22;24606;51.992;4.198;2022-09-12T16:21:55;29.10;52.20
38854;DHT22;24606;51.992;4.198;2022-09-12T16:26:57;29.20;50.00
38854;DHT22;24606;51.992;4.198;2022-09-12T16:31:59;29.00;52.60
38854;DHT22;24606;51.992;4.198;2022-09-12T16:37:02;28.90;52.50
38854;DHT22;24606;51.992;4.198;2022-09-12T16:42:05;28.90;52.80
38854;DHT22;24606;51.992;4.198;2022-09-12T16:47:07;28.80;52.70
38854;DHT22;24606;51.992;4.198;2022-09-12T16:52:10;28.80;52.80
38854;DHT22;24606;51.992;4.198;2022-09-12T16:57:15;28.90;53.10
38854;DHT22;24606;51.992;4.198;2022-09-12T17:02:17;28.80;53.00
38854;DHT22;24606;51.992;4.198;2022-09-12T17:07:21;28.80;53.10
38854;DHT22;24606;51.992;4.198;2022-09-12T17:12:23;28.80;53.20
38854;DHT22;24606;51.992;4.198;2022-09-12T17:17:25;28.80;53.30
38854;DHT22;24606;51.992;4.198;2022-09-12T17:22:28;28.80;53.30
38854;DHT22;24606;51.992;4.198;2022-09-12T17:27:30;28.60;53.20
38854;DHT22;24606;51.992;4.198;2022-09-12T17:32:32;28.80;53.50
38854;DHT22;24606;51.992;4.198;2022-09-12T17:37:35;28.80;53.60
38854;DHT22;24606;51.992;4.198;2022-09-12T17:42:37;28.80;53.70
38854;DHT22;24606;51.992;4.198;2022-09-12T17:47:40;28.80;53.60
38854;DHT22;24606;51.992;4.198;2022-09-12T17:52:44;29.90;54.50
38854;DHT22;24606;51.992;4.198;2022-09-12T17:57:46;28.70;53.80
38854;DHT22;24606;51.992;4.198;2022-09-12T18:02:48;28.90;53.90
38854;DHT22;24606;51.992;4.198;2022-09-12T18:07:52;28.30;53.70
38854;DHT22;24606;51.992;4.198;2022-09-12T18:12:54;28.50;54.00
38854;DHT22;24606;51.992;4.198;2022-09-12T18:17:56;28.50;54.10
38854;DHT22;24606;51.992;4.198;2022-09-12T18:22:59;28.40;54.10
38854;DHT22;24606;51.992;4.198;2022-09-12T18:28:01;28.40;54.20
38854;DHT22;24606;51.992;4.198;2022-09-12T18:33:06;28.30;54.20
38854;DHT22;24606;51.992;4.198;2022-09-12T18:38:09;28.30;54.20
38854;DHT22;24606;51.992;4.198;2022-09-12T18:43:11;28.30;54.40
38854;DHT22;24606;51.992;4.198;2022-09-12T18:48:14;28.30;54.40
38854;DHT22;24606;51.992;4.198;2022-09-12T18:53:17;28.20;54.40
38854;DHT22;24606;51.992;4.198;2022-09-12T18:58:19;28.20;54.50
38854;DHT22;24606;51.992;4.198;2022-09-12T19:03:21;28.20;54.70
38854;DHT22;24606;51.992;4.198;2022-09-12T19:08:24;28.10;54.80
38854;DHT22;24606;51.992;4.198;2022-09-12T19:13:26;28.10;54.90
38854;DHT22;24606;51.992;4.198;2022-09-12T19:18:28;28.00;55.00
38854;DHT22;24606;51.992;4.198;2022-09-12T19:23:35;28.00;55.00
38854;DHT22;24606;51.992;4.198;2022-09-12T19:28:37;28.00;55.10
38854;DHT22;24606;51.992;4.198;2022-09-12T19:33:39;27.90;55.20
38854;DHT22;24606;51.992;4.198;2022-09-12T19:38:43;27.90;55.20
38854;DHT22;24606;51.992;4.198;2022-09-12T19:43:44;27.90;55.40
38854;DHT22;24606;51.992;4.198;2022-09-12T19:48:47;27.60;55.30
38854;DHT22;24606;51.992;4.198;2022-09-12T19:53:50;27.80;55.60
38854;DHT22;24606;51.992;4.198;2022-09-12T19:58:52;27.80;56.30
38854;DHT22;24606;51.992;4.198;2022-09-12T20:03:54;27.70;55.80
38854;DHT22;24606;51.992;4.198;2022-09-12T20:08:57;28.00;56.00
38854;DHT22;24606;51.992;4.198;2022-09-12T20:13:59;27.70;56.00
38854;DHT22;24606;51.992;4.198;2022-09-12T20:19:03;27.70;56.00
38854;DHT22;24606;51.992;4.198;2022-09-12T20:24:09;27.80;56.10
38854;DHT22;24606;51.992;4.198;2022-09-12T20:29:12;28.10;56.40
38854;DHT22;24606;51.992;4.198;2022-09-12T20:34:15;27.60;56.20
38854;DHT22;24606;51.992;4.198;2022-09-12T20:39:21;27.60;56.20
38854;DHT22;24606;51.992;4.198;2022-09-12T20:44:23;27.60;56.30
38854;DHT22;24606;51.992;4.198;2022-09-12T20:49:26;28.10;56.70
38854;DHT22;24606;51.992;4.198;2022-09-12T20:54:29;27.60;56.50
38854;DHT22;24606;51.992;4.198;2022-09-12T20:59:31;27.50;56.40
38854;DHT22;24606;51.992;4.198;2022-09-12T21:04:34;27.80;56.70
38854;DHT22;24606;51.992;4.198;2022-09-12T21:09:37;27.50;56.50
38854;DHT22;24606;51.992;4.198;2022-09-12T21:14:39;27.40;56.50
38854;DHT22;24606;51.992;4.198;2022-09-12T21:19:41;27.40;56.60
38854;DHT22;24606;51.992;4.198;2022-09-12T21:24:44;27.40;56.70
38854;DHT22;24606;51.992;4.198;2022-09-12T21:29:46;27.40;56.70
38854;DHT22;24606;51.992;4.198;2022-09-12T21:34:48;28.30;57.40
38854;DHT22;24606;51.992;4.198;2022-09-12T21:39:51;27.60;57.00
38854;DHT22;24606;51.992;4.198;2022-09-12T21:44:53;27.30;56.80
38854;DHT22;24606;51.992;4.198;2022-09-12T21:49:55;27.30;56.90
38854;DHT22;24606;51.992;4.198;2022-09-12T21:54:59;27.30;57.00
38854;DHT22;24606;51.992;4.198;2022-09-12T22:00:05;27.20;57.00
38854;DHT22;24606;51.992;4.198;2022-09-12T22:05:08;27.20;57.00
38854;DHT22;24606;51.992;4.198;2022-09-12T22:10:11;27.20;57.10
38854;DHT22;24606;51.992;4.198;2022-09-12T22:15:13;27.20;57.20
38854;DHT22;24606;51.992;4.198;2022-09-12T22:20:15;27.10;57.20
38854;DHT22;24606;51.992;4.198;2022-09-12T22:25:18;27.20;57.30
38854;DHT22;24606;51.992;4.198;2022-09-12T22:30:24;27.10;57.30
38854;DHT22;24606;51.992;4.198;2022-09-12T22:35:27;27.10;57.40
38854;DHT22;24606;51.992;4.198;2022-09-12T22:40:30;27.50;57.70
38854;DHT22;24606;51.992;4.198;2022-09-12T22:45:32;27.00;57.40
38854;DHT22;24606;51.992;4.198;2022-09-12T22:50:34;27.00;57.50
38854;DHT22;24606;51.992;4.198;2022-09-12T22:55:37;27.00;57.60
38854;DHT22;24606;51.992;4.198;2022-09-12T23:00:44;27.00;57.60
38854;DHT22;24606;51.992;4.198;2022-09-12T23:05:47;27.00;57.60
38854;DHT22;24606;51.992;4.198;2022-09-12T23:10:50;26.90;57.70
38854;DHT22;24606;51.992;4.198;2022-09-12T23:16:00;26.90;57.70
38854;DHT22;24606;51.992;4.198;2022-09-12T23:21:05;26.80;57.70
38854;DHT22;24606;51.992;4.198;2022-09-12T23:26:10;26.80;57.80
38854;DHT22;24606;51.992;4.198;2022-09-12T23:31:13;26.80;57.80
38854;DHT22;24606;51.992;4.198;2022-09-12T23:36:15;26.80;57.80
38854;DHT22;24606;51.992;4.198;2022-09-12T23:41:18;26.90;58.00
38854;DHT22;24606;51.992;4.198;2022-09-12T23:46:21;26.80;58.60
38854;DHT22;24606;51.992;4.198;2022-09-12T23:51:22;26.90;58.20
38854;DHT22;24606;51.992;4.198;2022-09-12T23:56:26;26.70;58.10
